Time;durP1;ratioP1;P1;durP2;ratioP2;P2;SDS_P1;SDS_P2;PMS_P1;PMS_P2;Temp;Humidity;BMP_temperature;BMP_pressure;BME280_temperature;BME280_humidity;BME280_pressure;Samples;Min_cycle;Max_cycle;Signal;HPM_P1;HPM_P2
2023/04/28 00:02:16;;;;;;;10.98;5.45;;;6.60;99.90;;;;;;5002192;28;20529;-59
2023/04/28 00:04:41;;;;;;;9.38;5.50;;;6.60;99.90;;;;;;5002965;28;20104;-60
2023/04/28 00:07:07;;;;;;;10.02;5.35;;;6.60;99.90;;;;;;5004061;28;20051;-60
2023/04/28 00:09:33;;;;;;;7.75;5.40;;;6.50;99.90;;;;;;4997783;28;20041;-61
2023/04/28 00:11:58;;;;;;;10.82;5.70;;;6.50;99.90;;;;;;4970472;28;20545;-61
2023/04/28 00:14:25;;;;;;;7.97;6.07;;;6.50;99.90;;;;;;4975822;28;20049;-60
2023/04/28 00:16:50;;;;;;;10.07;5.53;;;6.50;99.90;;;;;;5004573;28;20571;-60
2023/04/28 00:19:16;;;;;;;8.52;5.22;;;6.50;99.90;;;;;;5009045;28;20224;-60
2023/04/28 00:21:42;;;;;;;9.30;5.65;;;6.50;99.90;;;;;;4983424;28;20515;-60
2023/04/28 00:24:07;;;;;;;8.35;5.50;;;6.50;99.90;;;;;;5000604;28;20307;-60
2023/04/28 00:26:33;;;;;;;10.45;5.55;;;6.50;99.90;;;;;;5006947;28;20123;-60
2023/04/28 00:28:59;;;;;;;11.73;5.50;;;6.50;99.90;;;;;;5005687;28;20045;-60
2023/04/28 00:31:24;;;;;;;8.13;5.60;;;6.50;99.90;;;;;;5013479;28;20129;-60
2023/04/28 00:33:50;;;;;;;11.50;7.32;;;6.50;99.90;;;;;;4989682;28;20778;-60
2023/04/28 00:36:16;;;;;;;8.55;5.88;;;6.50;99.90;;;;;;5021470;28;20130;-61
2023/04/28 00:38:41;;;;;;;10.73;6.15;;;6.50;99.90;;;;;;5009239;28;20042;-61
2023/04/28 00:41:09;;;;;;;9.73;6.35;;;6.50;99.90;;;;;;5005213;28;20034;-60
2023/04/28 00:43:48;;;;;;;8.43;5.88;;;6.50;99.90;;;;;;4999468;28;20133;-59
2023/04/28 00:46:21;;;;;;;9.52;6.00;;;6.50;99.90;;;;;;4999480;28;20085;-59
2023/04/28 00:48:48;;;;;;;10.73;6.07;;;6.50;99.90;;;;;;4989248;28;20092;-60
2023/04/28 00:51:14;;;;;;;9.40;6.10;;;6.50;99.90;;;;;;5002736;28;20077;-60
2023/04/28 00:53:40;;;;;;;9.50;6.75;;;6.40;99.90;;;;;;5007079;28;20060;-59
2023/04/28 00:56:06;;;;;;;11.85;6.80;;;6.40;99.90;;;;;;5003429;28;20428;-60
2023/04/28 00:58:34;;;;;;;8.68;6.47;;;6.30;99.90;;;;;;5000176;28;20104;-60
2023/04/28 01:01:07;;;;;;;9.90;6.65;;;6.40;99.90;;;;;;5008133;28;20322;-60
2023/04/28 01:03:36;;;;;;;9.93;6.40;;;6.40;99.90;;;;;;5003321;28;20026;-60
2023/04/28 01:06:04;;;;;;;8.55;6.22;;;6.40;99.90;;;;;;4999484;28;20073;-60
2023/04/28 01:08:31;;;;;;;9.88;6.60;;;6.30;99.90;;;;;;5005663;28;20030;-60
2023/04/28 01:10:57;;;;;;;9.20;5.97;;;6.30;99.90;;;;;;5007013;28;20048;-60
2023/04/28 01:13:23;;;;;;;10.10;6.43;;;6.30;99.90;;;;;;5003981;28;20396;-60
2023/04/28 01:15:49;;;;;;;10.32;6.22;;;6.30;99.90;;;;;;4992824;28;20053;-60
2023/04/28 01:18:16;;;;;;;9.30;7.15;;;6.30;99.90;;;;;;4975352;28;20137;-60
2023/04/28 01:20:42;;;;;;;9.70;7.05;;;6.30;99.90;;;;;;5002467;28;20084;-60
2023/04/28 01:23:15;;;;;;;10.68;7.43;;;6.30;99.90;;;;;;4984382;28;20064;-60
2023/04/28 01:25:41;;;;;;;10.13;6.40;;;6.30;99.90;;;;;;5004463;28;20065;-60
2023/04/28 01:28:08;;;;;;;10.27;6.50;;;6.30;99.90;;;;;;4986768;28;20042;-60
2023/04/28 01:30:34;;;;;;;13.02;6.65;;;6.30;99.90;;;;;;5001044;28;20513;-60
2023/04/28 01:33:00;;;;;;;10.35;6.88;;;6.30;99.90;;;;;;5003689;28;20034;-59
2023/04/28 01:35:26;;;;;;;11.90;7.15;;;6.30;99.90;;;;;;5004052;28;20718;-58
2023/04/28 01:37:52;;;;;;;9.55;6.90;;;6.30;99.90;;;;;;5000192;28;20042;-60
2023/04/28 01:40:18;;;;;;;10.98;7.20;;;6.30;99.90;;;;;;4988142;28;20099;-60
2023/04/28 01:42:43;;;;;;;11.57;7.80;;;6.30;99.90;;;;;;5005428;28;20073;-59
2023/04/28 01:45:10;;;;;;;11.82;7.32;;;6.30;99.90;;;;;;5003620;28;20054;-60
2023/04/28 01:47:35;;;;;;;11.23;6.93;;;6.20;99.90;;;;;;5005575;28;20045;-60
2023/04/28 01:50:01;;;;;;;9.48;7.18;;;6.30;99.90;;;;;;5001659;28;20560;-60
2023/04/28 01:52:27;;;;;;;11.63;7.53;;;6.20;99.90;;;;;;4986133;28;20050;-60
2023/04/28 01:54:53;;;;;;;12.50;7.43;;;6.30;99.90;;;;;;4997183;28;20074;-59
2023/04/28 01:57:19;;;;;;;9.63;6.95;;;6.20;99.90;;;;;;5003222;28;20659;-59
2023/04/28 01:59:45;;;;;;;12.43;8.43;;;6.20;99.90;;;;;;5003097;28;20169;-60
2023/04/28 02:02:11;;;;;;;9.85;7.38;;;6.20;99.90;;;;;;5002720;28;20121;-59
2023/04/28 02:04:38;;;;;;;9.50;6.95;;;6.20;99.90;;;;;;5008545;28;20040;-59
2023/04/28 02:07:04;;;;;;;12.65;8.27;;;6.20;99.90;;;;;;4998492;28;20117;-59
2023/04/28 02:09:31;;;;;;;13.20;8.68;;;6.20;99.90;;;;;;4983649;28;20052;-60
2023/04/28 02:11:56;;;;;;;13.07;8.27;;;6.20;99.90;;;;;;4970654;28;20121;-59
2023/04/28 02:14:22;;;;;;;13.93;7.70;;;6.20;99.90;;;;;;5001486;28;20138;-60
2023/04/28 02:16:48;;;;;;;12.13;8.75;;;6.10;99.90;;;;;;5005150;28;20057;-59
2023/04/28 02:19:14;;;;;;;12.85;7.75;;;6.20;99.90;;;;;;5003299;28;20493;-59
2023/04/28 02:21:41;;;;;;;13.82;8.88;;;6.20;99.90;;;;;;5003139;28;20041;-58
2023/04/28 02:24:07;;;;;;;12.88;8.75;;;6.20;99.90;;;;;;5004041;28;20400;-60
2023/04/28 02:26:34;;;;;;;11.63;8.50;;;6.30;99.90;;;;;;5019912;28;20136;-60
2023/04/28 02:29:00;;;;;;;19.13;10.35;;;6.30;99.90;;;;;;5005868;28;20045;-60
2023/04/28 02:31:25;;;;;;;13.45;8.68;;;6.20;99.90;;;;;;5003856;28;20571;-59
2023/04/28 02:33:51;;;;;;;15.07;8.98;;;6.30;99.90;;;;;;4998471;28;20034;-60
2023/04/28 02:36:17;;;;;;;15.48;9.23;;;6.30;99.90;;;;;;4988662;28;20057;-60
2023/04/28 02:38:43;;;;;;;13.15;9.13;;;6.30;99.90;;;;;;4999105;28;20042;-59
2023/04/28 02:41:10;;;;;;;13.88;8.95;;;6.30;99.90;;;;;;5001248;28;20049;-59
2023/04/28 02:43:36;;;;;;;13.88;8.15;;;6.30;99.90;;;;;;5003411;28;20377;-60
2023/04/28 02:46:03;;;;;;;12.85;8.55;;;6.20;99.90;;;;;;4985833;28;20432;-59
2023/04/28 02:48:29;;;;;;;14.80;9.65;;;6.30;99.90;;;;;;4980758;28;20038;-60
2023/04/28 02:50:55;;;;;;;12.90;8.32;;;6.30;99.90;;;;;;4984767;28;20042;-60
2023/04/28 02:53:21;;;;;;;12.07;8.02;;;6.30;99.90;;;;;;4988996;28;20048;-60
2023/04/28 02:55:48;;;;;;;11.07;8.55;;;6.30;99.90;;;;;;4998438;28;20104;-59
2023/04/28 02:58:14;;;;;;;15.00;9.25;;;6.30;99.90;;;;;;5008538;28;20034;-60
2023/04/28 03:00:39;;;;;;;13.10;8.27;;;6.30;99.90;;;;;;5005386;28;20553;-60
2023/04/28 03:03:05;;;;;;;13.13;8.32;;;6.40;99.90;;;;;;5008401;28;20030;-60
2023/04/28 03:05:31;;;;;;;15.27;9.30;;;6.30;99.90;;;;;;4997983;28;20042;-60
2023/04/28 03:07:58;;;;;;;14.95;8.82;;;6.40;99.90;;;;;;5000996;28;20105;-58
2023/04/28 03:10:23;;;;;;;13.70;8.85;;;6.40;99.90;;;;;;5007169;28;20050;-59
2023/04/28 03:12:49;;;;;;;15.32;9.70;;;6.40;99.90;;;;;;4997355;28;20044;-60
2023/04/28 03:15:15;;;;;;;16.42;9.68;;;6.40;99.90;;;;;;4994605;28;20046;-59
2023/04/28 03:17:41;;;;;;;15.05;9.65;;;6.40;99.90;;;;;;4999293;28;20038;-59
2023/04/28 03:20:08;;;;;;;15.52;10.38;;;6.40;99.90;;;;;;4999977;28;20042;-60
2023/04/28 03:22:35;;;;;;;13.63;9.63;;;6.40;99.90;;;;;;4982244;28;20034;-59
2023/04/28 03:25:01;;;;;;;14.77;9.52;;;6.40;99.90;;;;;;5020259;28;20049;-59
2023/04/28 03:27:27;;;;;;;14.43;9.63;;;6.40;99.90;;;;;;4999766;28;20050;-60
2023/04/28 03:29:53;;;;;;;15.93;10.10;;;6.40;99.90;;;;;;5021213;28;20077;-61
2023/04/28 03:32:19;;;;;;;16.27;10.52;;;6.40;99.90;;;;;;5008904;28;20458;-61
2023/04/28 03:34:45;;;;;;;17.63;9.82;;;6.40;99.90;;;;;;5013264;28;20049;-60
2023/04/28 03:37:11;;;;;;;19.25;11.38;;;6.50;99.90;;;;;;4974671;28;20070;-61
2023/04/28 03:39:36;;;;;;;16.75;10.95;;;6.50;99.90;;;;;;4991315;28;20119;-61
2023/04/28 03:42:02;;;;;;;15.30;10.77;;;6.50;99.90;;;;;;5008470;28;20045;-61
2023/04/28 03:44:28;;;;;;;16.17;10.00;;;6.50;99.90;;;;;;5006423;28;20151;-61
2023/04/28 03:46:54;;;;;;;19.60;12.13;;;6.50;99.90;;;;;;5009109;28;20108;-61
2023/04/28 03:49:19;;;;;;;19.98;11.63;;;6.50;99.90;;;;;;4998309;28;20520;-61
2023/04/28 03:51:45;;;;;;;24.95;13.18;;;6.50;99.90;;;;;;4996590;28;20370;-61
2023/04/28 03:54:11;;;;;;;15.13;10.88;;;6.50;99.90;;;;;;5009024;28;20045;-61
2023/04/28 03:56:37;;;;;;;17.23;10.98;;;6.60;99.90;;;;;;4977716;28;20046;-60
2023/04/28 03:59:02;;;;;;;19.13;12.23;;;6.60;99.90;;;;;;5006109;28;20393;-61
2023/04/28 04:01:28;;;;;;;21.15;11.30;;;6.60;99.90;;;;;;4985339;28;20038;-60
2023/04/28 04:03:54;;;;;;;21.25;12.13;;;6.60;99.90;;;;;;5002891;28;20523;-61
2023/04/28 04:06:21;;;;;;;18.58;12.68;;;6.60;99.90;;;;;;4991152;28;20049;-61
2023/04/28 04:08:47;;;;;;;20.25;11.95;;;6.60;99.90;;;;;;5006840;28;20092;-61
2023/04/28 04:11:13;;;;;;;21.92;14.02;;;6.60;99.90;;;;;;5004625;28;20045;-61
2023/04/28 04:13:38;;;;;;;18.75;12.50;;;6.70;99.90;;;;;;5008047;28;20073;-61
2023/04/28 04:16:05;;;;;;;19.40;12.30;;;6.70;99.90;;;;;;5010123;28;20046;-60
2023/04/28 04:18:31;;;;;;;18.63;12.40;;;6.60;99.90;;;;;;4999797;28;20156;-61
2023/04/28 04:20:56;;;;;;;23.38;12.95;;;6.70;99.90;;;;;;4980578;28;20556;-61
2023/04/28 04:23:22;;;;;;;21.77;13.40;;;6.70;99.90;;;;;;4989898;28;20501;-61
2023/04/28 04:25:48;;;;;;;23.33;13.90;;;6.70;99.90;;;;;;4994330;28;20121;-61
2023/04/28 04:28:15;;;;;;;18.83;12.40;;;6.70;99.90;;;;;;5004499;28;20464;-61
2023/04/28 04:30:41;;;;;;;22.17;13.85;;;6.70;99.90;;;;;;4995007;28;20037;-61
2023/04/28 04:33:07;;;;;;;18.80;12.18;;;6.70;99.90;;;;;;4982600;28;20057;-61
2023/04/28 04:35:33;;;;;;;24.45;13.80;;;6.70;99.90;;;;;;5000336;28;20057;-61
2023/04/28 04:38:00;;;;;;;24.27;14.93;;;6.80;99.90;;;;;;5003848;28;20069;-62
2023/04/28 04:40:25;;;;;;;22.42;14.05;;;6.70;99.90;;;;;;4991898;28;20514;-61
2023/04/28 04:42:51;;;;;;;23.27;13.73;;;6.80;99.90;;;;;;5002402;28;20033;-62
2023/04/28 04:45:17;;;;;;;22.48;13.82;;;6.80;99.90;;;;;;5003008;28;20049;-61
2023/04/28 04:47:43;;;;;;;22.08;13.88;;;6.70;99.90;;;;;;5002153;28;20053;-61
2023/04/28 04:50:10;;;;;;;21.30;14.07;;;6.80;99.90;;;;;;4987569;28;20493;-61
2023/04/28 04:52:36;;;;;;;20.30;12.13;;;6.80;99.90;;;;;;4993352;28;20052;-61
2023/04/28 04:55:02;;;;;;;20.02;12.82;;;6.80;99.90;;;;;;5024047;28;20501;-61
2023/04/28 04:57:28;;;;;;;21.80;13.57;;;6.80;99.90;;;;;;4997040;28;20124;-61
2023/04/28 04:59:54;;;;;;;20.27;13.18;;;6.80;99.90;;;;;;4993116;28;20692;-61
2023/04/28 05:02:19;;;;;;;20.67;13.55;;;6.80;99.90;;;;;;4987831;28;20042;-61
2023/04/28 05:04:45;;;;;;;19.67;13.20;;;6.80;99.90;;;;;;5005087;28;20504;-62
2023/04/28 05:07:11;;;;;;;21.00;13.30;;;6.80;99.90;;;;;;5004749;28;20289;-62
2023/04/28 05:09:37;;;;;;;23.17;13.32;;;6.90;99.90;;;;;;5007084;28;20042;-62
2023/04/28 05:12:03;;;;;;;21.08;13.57;;;6.90;99.90;;;;;;4988262;28;20045;-61
2023/04/28 05:14:29;;;;;;;23.55;14.05;;;6.90;99.90;;;;;;5008161;28;20052;-61
2023/04/28 05:16:54;;;;;;;23.33;13.45;;;6.90;99.90;;;;;;5007165;28;20195;-61
2023/04/28 05:19:20;;;;;;;20.05;13.20;;;6.90;99.90;;;;;;4997525;28;20061;-62
2023/04/28 05:21:51;;;;;;;21.27;12.50;;;7.00;99.90;;;;;;4989573;28;20053;-63
2023/04/28 05:24:17;;;;;;;19.42;12.73;;;7.00;99.90;;;;;;4991022;28;20037;-61
2023/04/28 05:26:42;;;;;;;21.73;13.02;;;7.00;99.90;;;;;;5008575;28;20072;-61
2023/04/28 05:29:08;;;;;;;22.95;14.45;;;7.00;99.90;;;;;;4989159;28;20086;-61
2023/04/28 05:31:34;;;;;;;18.27;11.95;;;7.10;99.90;;;;;;5002555;28;20048;-62
2023/04/28 05:34:00;;;;;;;21.10;13.43;;;7.00;99.90;;;;;;4974376;28;20050;-62
2023/04/28 05:36:26;;;;;;;23.75;13.95;;;7.00;99.90;;;;;;4977050;28;20085;-61
2023/04/28 05:38:52;;;;;;;19.42;12.85;;;7.10;99.90;;;;;;5000847;28;20513;-61
2023/04/28 05:41:17;;;;;;;20.42;12.80;;;7.10;99.90;;;;;;4990335;28;20050;-61
2023/04/28 05:43:43;;;;;;;22.77;13.50;;;7.10;99.90;;;;;;5008636;28;20042;-61
2023/04/28 05:46:09;;;;;;;23.50;13.15;;;7.20;99.90;;;;;;5002414;28;20048;-61
2023/04/28 05:48:35;;;;;;;22.90;13.05;;;7.20;99.90;;;;;;5004799;28;20061;-61
2023/04/28 05:51:01;;;;;;;20.48;13.05;;;7.20;99.90;;;;;;5002343;28;20061;-61
2023/04/28 05:53:26;;;;;;;19.27;12.65;;;7.20;99.90;;;;;;5003041;28;20388;-61
2023/04/28 05:55:52;;;;;;;20.27;13.05;;;7.20;99.90;;;;;;5004956;28;20038;-62
2023/04/28 05:58:18;;;;;;;17.63;11.80;;;7.20;99.90;;;;;;4985275;28;20417;-61
2023/04/28 06:00:44;;;;;;;21.48;12.90;;;7.30;99.90;;;;;;5003292;28;20120;-61
2023/04/28 06:03:10;;;;;;;20.35;13.27;;;7.20;99.90;;;;;;5000877;28;20137;-62
2023/04/28 06:05:36;;;;;;;19.15;12.90;;;7.20;99.90;;;;;;5003915;28;20030;-62
2023/04/28 06:08:02;;;;;;;21.30;13.55;;;7.20;99.90;;;;;;5003280;28;20052;-61
2023/04/28 06:10:28;;;;;;;19.58;12.57;;;7.20;99.90;;;;;;4982987;28;20124;-61
2023/04/28 06:12:53;;;;;;;21.00;12.43;;;7.20;99.90;;;;;;4984585;28;20514;-62
2023/04/28 06:15:19;;;;;;;17.90;11.52;;;7.20;99.90;;;;;;5026458;28;20129;-61
2023/04/28 06:17:46;;;;;;;20.38;14.02;;;7.30;99.90;;;;;;5004018;28;20169;-62
2023/04/28 06:20:12;;;;;;;18.70;12.63;;;7.30;99.90;;;;;;5004156;28;20081;-61
2023/04/28 06:22:39;;;;;;;20.63;13.13;;;7.30;99.90;;;;;;4986555;28;20479;-62
2023/04/28 06:25:06;;;;;;;19.50;13.75;;;7.30;99.90;;;;;;4984015;28;20042;-61
2023/04/28 06:27:31;;;;;;;18.35;11.90;;;7.30;99.90;;;;;;4999997;28;20111;-61
2023/04/28 06:29:58;;;;;;;19.23;12.95;;;7.30;99.90;;;;;;4989675;28;20041;-61
2023/04/28 06:32:24;;;;;;;19.25;12.57;;;7.30;99.90;;;;;;5002888;28;20053;-61
2023/04/28 06:34:49;;;;;;;17.17;12.05;;;7.30;99.90;;;;;;4987049;28;20034;-61
2023/04/28 06:37:15;;;;;;;20.55;12.13;;;7.30;99.90;;;;;;5001604;28;20044;-61
2023/04/28 06:39:41;;;;;;;21.40;12.90;;;7.30;99.90;;;;;;5000570;28;20073;-61
2023/04/28 06:42:07;;;;;;;18.33;11.52;;;7.30;99.90;;;;;;4997340;28;20038;-61
2023/04/28 06:44:33;;;;;;;19.90;12.68;;;7.40;99.90;;;;;;5001346;28;20034;-61
2023/04/28 06:46:58;;;;;;;19.35;11.70;;;7.40;99.90;;;;;;5000465;28;20033;-61
2023/04/28 06:49:24;;;;;;;17.02;12.32;;;7.40;99.90;;;;;;5004254;28;20061;-61
2023/04/28 06:51:50;;;;;;;20.30;13.75;;;7.40;99.90;;;;;;4986164;28;20137;-62
2023/04/28 06:54:16;;;;;;;18.15;12.20;;;7.40;99.90;;;;;;5004334;28;20398;-61
2023/04/28 06:56:41;;;;;;;21.85;12.57;;;7.30;99.90;;;;;;5002360;28;20204;-61
2023/04/28 06:59:07;;;;;;;19.35;12.95;;;7.40;99.90;;;;;;4997897;28;20052;-61
2023/04/28 07:01:36;;;;;;;21.75;13.38;;;7.40;99.90;;;;;;4982224;28;20501;-61
2023/04/28 07:04:01;;;;;;;19.65;12.25;;;7.40;99.90;;;;;;5001530;28;20431;-61
2023/04/28 07:06:28;;;;;;;24.63;12.50;;;7.40;99.90;;;;;;5003371;28;20129;-60
2023/04/28 07:08:54;;;;;;;19.42;12.70;;;7.50;99.90;;;;;;4994531;28;20025;-61
2023/04/28 07:11:22;;;;;;;20.17;11.95;;;7.50;99.90;;;;;;5004890;28;20512;-61
2023/04/28 07:13:50;;;;;;;18.63;12.30;;;7.60;99.90;;;;;;5004146;28;20057;-61
2023/04/28 07:16:17;;;;;;;21.60;12.85;;;7.60;99.90;;;;;;5007925;28;20057;-60
2023/04/28 07:18:43;;;;;;;18.10;11.82;;;7.70;99.90;;;;;;5004894;28;20697;-61
2023/04/28 07:21:08;;;;;;;19.42;12.20;;;7.60;99.90;;;;;;5003445;28;20034;-60
2023/04/28 07:23:34;;;;;;;21.15;13.05;;;7.70;99.90;;;;;;5007171;28;20072;-61
2023/04/28 07:26:00;;;;;;;17.42;11.20;;;7.70;99.90;;;;;;4992435;28;20042;-61
2023/04/28 07:28:26;;;;;;;17.08;11.88;;;7.80;99.90;;;;;;4986074;28;20042;-61
2023/04/28 07:30:51;;;;;;;18.35;11.93;;;7.80;99.90;;;;;;4998252;28;20295;-60
2023/04/28 07:33:17;;;;;;;18.27;11.80;;;7.80;99.90;;;;;;5002686;28;20125;-61
2023/04/28 07:35:43;;;;;;;21.55;13.00;;;7.90;99.90;;;;;;5005335;28;20038;-61
2023/04/28 07:38:09;;;;;;;16.23;11.45;;;7.90;99.90;;;;;;5004106;28;20069;-61
2023/04/28 07:40:35;;;;;;;18.17;12.00;;;7.80;99.90;;;;;;5006837;28;20053;-61
2023/04/28 07:43:01;;;;;;;16.77;11.48;;;7.80;99.90;;;;;;4978850;28;20442;-61
2023/04/28 07:45:27;;;;;;;17.58;11.90;;;7.80;99.90;;;;;;5000727;28;20133;-61
2023/04/28 07:47:52;;;;;;;19.40;11.80;;;7.80;99.90;;;;;;5001641;28;20046;-61
2023/04/28 07:50:18;;;;;;;17.02;11.30;;;7.80;99.90;;;;;;5009157;28;20038;-61
2023/04/28 07:52:44;;;;;;;16.65;11.63;;;7.90;99.90;;;;;;4990196;28;20060;-61
2023/04/28 07:55:10;;;;;;;21.23;12.98;;;7.90;99.90;;;;;;5001346;28;20038;-61
2023/04/28 07:57:36;;;;;;;22.42;12.98;;;7.90;99.90;;;;;;5006147;28;20527;-60
2023/04/28 08:00:02;;;;;;;21.15;11.90;;;7.90;99.90;;;;;;5006382;28;20044;-61
2023/04/28 08:02:28;;;;;;;19.80;12.80;;;7.90;99.90;;;;;;4968183;28;20080;-60
2023/04/28 08:04:54;;;;;;;19.23;12.13;;;7.90;99.90;;;;;;4987473;28;20073;-61
2023/04/28 08:07:19;;;;;;;15.27;11.90;;;7.90;99.90;;;;;;4996773;28;20615;-61
2023/04/28 08:09:47;;;;;;;20.00;13.73;;;7.90;99.90;;;;;;5006369;28;20350;-61
2023/04/28 08:12:13;;;;;;;17.33;10.70;;;8.00;99.90;;;;;;5004215;28;20413;-61
2023/04/28 08:14:39;;;;;;;19.52;13.80;;;8.00;99.90;;;;;;4988487;28;20073;-61
2023/04/28 08:17:05;;;;;;;19.73;13.43;;;8.10;99.90;;;;;;4985358;28;20400;-61
2023/04/28 08:19:30;;;;;;;21.58;13.85;;;8.10;99.90;;;;;;5001254;28;20040;-61
2023/04/28 08:21:56;;;;;;;21.65;13.50;;;8.20;99.90;;;;;;4988391;28;20052;-61
2023/04/28 08:24:22;;;;;;;19.50;13.35;;;8.30;99.90;;;;;;5005989;28;20543;-61
2023/04/28 08:26:48;;;;;;;19.98;12.52;;;8.30;99.90;;;;;;4992129;28;20046;-61
2023/04/28 08:29:13;;;;;;;24.02;14.05;;;8.30;99.90;;;;;;4988371;28;20048;-61
2023/04/28 08:31:39;;;;;;;22.63;13.80;;;8.40;99.90;;;;;;5001163;28;20088;-61
2023/04/28 08:34:05;;;;;;;17.70;12.32;;;8.40;99.90;;;;;;5005894;28;20095;-61
2023/04/28 08:36:32;;;;;;;20.83;14.32;;;8.50;99.90;;;;;;4996338;28;20413;-61
2023/04/28 08:39:00;;;;;;;18.10;12.50;;;8.60;99.90;;;;;;4969293;28;20507;-61
2023/04/28 08:41:28;;;;;;;18.13;13.48;;;8.70;99.90;;;;;;5000596;28;20121;-62
2023/04/28 08:43:54;;;;;;;18.45;13.60;;;8.80;99.90;;;;;;5019421;28;20163;-61
2023/04/28 08:46:22;;;;;;;23.10;12.55;;;8.80;99.90;;;;;;4975581;28;21175;-61
2023/04/28 08:48:49;;;;;;;17.88;12.65;;;8.80;99.90;;;;;;4987899;28;20050;-61
2023/04/28 08:51:32;;;;;;;18.50;12.45;;;8.80;99.90;;;;;;4990736;28;20133;-61
2023/04/28 08:54:00;;;;;;;18.65;13.05;;;8.80;99.90;;;;;;4996961;28;20030;-61
2023/04/28 08:56:32;;;;;;;18.75;12.70;;;8.90;99.90;;;;;;4983316;28;20034;-61
2023/04/28 08:59:03;;;;;;;16.92;12.60;;;8.90;99.90;;;;;;5004190;28;20048;-61
2023/04/28 09:01:29;;;;;;;23.20;13.13;;;8.90;99.90;;;;;;5003965;28;20053;-61
2023/04/28 09:03:55;;;;;;;19.83;13.75;;;8.90;99.90;;;;;;5017003;28;20038;-61
2023/04/28 09:06:21;;;;;;;20.90;13.82;;;9.00;99.90;;;;;;4990274;28;20151;-61
2023/04/28 09:08:47;;;;;;;22.08;13.13;;;9.00;99.90;;;;;;5004769;28;20261;-61
2023/04/28 09:11:15;;;;;;;17.45;12.98;;;9.10;99.90;;;;;;5002276;28;20127;-61
2023/04/28 09:13:41;;;;;;;23.35;13.55;;;9.20;99.90;;;;;;5003510;28;20053;-61
2023/04/28 09:16:07;;;;;;;20.55;14.85;;;9.30;99.90;;;;;;5006683;28;20038;-61
2023/04/28 09:18:33;;;;;;;20.77;12.57;;;9.30;99.90;;;;;;4988968;28;20042;-61
2023/04/28 09:21:08;;;;;;;21.15;13.00;;;9.40;99.90;;;;;;5003372;28;20034;-61
2023/04/28 09:23:49;;;;;;;19.92;14.25;;;9.50;99.90;;;;;;5005758;28;20121;-61
2023/04/28 09:26:15;;;;;;;19.67;12.32;;;9.70;99.90;;;;;;5003216;28;20046;-62
2023/04/28 09:28:41;;;;;;;18.15;13.20;;;9.70;99.90;;;;;;5004294;28;20049;-60
2023/04/28 09:31:24;;;;;;;19.10;13.65;;;9.80;99.90;;;;;;4998843;28;20069;-60
2023/04/28 09:33:57;;;;;;;16.73;12.90;;;9.90;99.90;;;;;;4999567;28;20076;-61
2023/04/28 09:36:29;;;;;;;19.05;13.30;;;9.90;99.90;;;;;;5004366;28;20038;-61
2023/04/28 09:38:59;;;;;;;18.15;12.65;;;10.00;99.90;;;;;;5002908;28;20041;-61
2023/04/28 09:41:39;;;;;;;22.30;12.88;;;10.10;99.90;;;;;;5017090;28;20097;-63
2023/04/28 09:44:16;;;;;;;18.75;14.23;;;10.10;99.90;;;;;;5005937;28;20041;-61
2023/04/28 09:46:46;;;;;;;21.00;13.88;;;10.20;99.90;;;;;;4984049;28;20069;-61
2023/04/28 09:49:13;;;;;;;20.20;14.20;;;10.40;99.90;;;;;;5004059;28;20049;-62
2023/04/28 09:51:40;;;;;;;21.25;13.95;;;10.60;99.90;;;;;;5009467;28;20075;-61
2023/04/28 09:54:07;;;;;;;22.65;14.30;;;10.80;99.90;;;;;;5001461;28;20034;-60
2023/04/28 09:56:37;;;;;;;21.30;13.60;;;11.00;99.90;;;;;;5004084;28;20417;-59
2023/04/28 09:59:03;;;;;;;17.67;13.07;;;11.10;99.90;;;;;;4996170;28;20353;-60
2023/04/28 10:01:37;;;;;;;17.48;13.50;;;11.20;99.90;;;;;;5003835;28;20096;-61
2023/04/28 10:04:05;;;;;;;21.30;14.32;;;11.20;99.90;;;;;;5011305;28;20037;-64
2023/04/28 10:06:34;;;;;;;15.32;12.27;;;10.90;99.90;;;;;;4999327;28;20072;-62
2023/04/28 10:09:00;;;;;;;20.42;13.15;;;10.80;99.90;;;;;;4983985;28;20057;-62
2023/04/28 10:11:27;;;;;;;21.88;14.32;;;10.80;99.90;;;;;;5002337;28;20038;-62
2023/04/28 10:13:53;;;;;;;18.77;13.80;;;10.80;99.90;;;;;;5007438;28;20064;-62
2023/04/28 10:16:29;;;;;;;21.25;15.00;;;10.80;99.90;;;;;;4988955;28;20030;-63
2023/04/28 10:18:56;;;;;;;17.90;13.45;;;10.80;99.90;;;;;;5023956;28;20077;-62
2023/04/28 10:21:23;;;;;;;20.83;14.30;;;10.90;99.90;;;;;;5002051;28;20575;-61
2023/04/28 10:24:07;;;;;;;18.88;13.60;;;10.90;99.90;;;;;;4999076;28;20509;-61
2023/04/28 10:27:10;;;;;;;18.85;13.15;;;10.90;99.90;;;;;;5011287;28;20569;-64
2023/04/28 10:29:36;;;;;;;18.48;13.13;;;10.90;99.90;;;;;;5011120;28;20050;-60
2023/04/28 10:32:32;;;;;;;17.80;12.30;;;10.80;99.90;;;;;;5002410;28;20069;-62
2023/04/28 10:35:20;;;;;;;19.80;14.38;;;10.80;99.90;;;;;;4985528;28;20057;-59
2023/04/28 10:38:20;;;;;;;20.88;14.15;;;10.80;99.90;;;;;;4999190;28;20046;-63
2023/04/28 10:40:51;;;;;;;20.23;14.27;;;10.80;99.90;;;;;;5004758;28;20040;-61
2023/04/28 10:43:32;;;;;;;18.05;14.25;;;10.90;99.90;;;;;;5003643;28;20083;-63
2023/04/28 10:45:59;;;;;;;20.60;13.85;;;11.00;99.90;;;;;;5005051;28;20038;-63
2023/04/28 10:48:25;;;;;;;20.45;13.35;;;10.90;99.90;;;;;;5007660;28;20041;-63
2023/04/28 10:51:03;;;;;;;19.42;14.32;;;10.90;99.90;;;;;;5003544;28;20501;-62
2023/04/28 10:53:44;;;;;;;18.25;13.63;;;11.00;99.90;;;;;;5003684;28;20113;-64
2023/04/28 10:56:20;;;;;;;17.30;12.60;;;11.00;99.90;;;;;;5007107;28;20042;-63
2023/04/28 10:58:47;;;;;;;17.55;13.50;;;11.10;99.90;;;;;;5007086;28;20053;-61
2023/04/28 11:01:30;;;;;;;18.50;13.75;;;11.10;99.90;;;;;;4985350;28;20196;-61
2023/04/28 11:04:06;;;;;;;20.85;15.15;;;11.10;99.90;;;;;;5001183;28;20134;-61
2023/04/28 11:06:40;;;;;;;18.58;14.20;;;11.20;99.90;;;;;;5008949;28;20045;-60
2023/04/28 11:09:11;;;;;;;21.45;15.13;;;11.20;99.90;;;;;;5003500;28;20042;-59
2023/04/28 11:11:38;;;;;;;19.92;14.43;;;11.20;99.90;;;;;;5004440;28;20393;-64
2023/04/28 11:14:19;;;;;;;17.55;13.57;;;11.30;99.90;;;;;;5004859;28;20042;-59
2023/04/28 11:16:52;;;;;;;18.60;13.35;;;11.30;99.90;;;;;;5017461;28;20056;-60
2023/04/28 11:19:26;;;;;;;18.08;14.32;;;11.30;99.90;;;;;;5005082;28;20045;-59
2023/04/28 11:21:54;;;;;;;19.30;14.07;;;11.30;99.90;;;;;;4996017;28;20482;-61
2023/04/28 11:24:21;;;;;;;19.33;14.15;;;11.30;99.90;;;;;;5018930;28;20046;-60
2023/04/28 11:26:47;;;;;;;17.60;13.60;;;11.30;99.90;;;;;;4986325;28;20041;-60
2023/04/28 11:29:16;;;;;;;20.88;13.55;;;11.30;99.90;;;;;;5001615;28;20544;-60
2023/04/28 11:31:53;;;;;;;17.33;12.60;;;11.40;99.90;;;;;;5005358;28;20137;-62
2023/04/28 11:34:23;;;;;;;16.20;14.32;;;11.40;99.90;;;;;;4949647;28;20081;-60
2023/04/28 11:36:49;;;;;;;21.45;14.57;;;11.40;99.90;;;;;;5000802;28;20048;-60
2023/04/28 11:39:31;;;;;;;20.73;15.43;;;11.50;99.90;;;;;;5002872;28;20100;-60
2023/04/28 11:42:08;;;;;;;19.95;13.27;;;11.50;99.90;;;;;;4986711;28;20042;-64
2023/04/28 11:44:37;;;;;;;20.67;15.18;;;11.50;99.90;;;;;;4999713;28;20133;-60
2023/04/28 11:47:04;;;;;;;20.73;14.98;;;11.60;99.90;;;;;;5003822;28;20041;-60
2023/04/28 11:49:43;;;;;;;19.75;15.30;;;11.50;99.90;;;;;;4990330;28;20041;-58
2023/04/28 11:52:09;;;;;;;19.73;14.50;;;11.50;99.90;;;;;;5001287;28;20149;-63
2023/04/28 11:54:36;;;;;;;18.90;15.75;;;11.50;99.90;;;;;;4992598;28;20081;-61
2023/04/28 11:57:03;;;;;;;23.92;15.68;;;11.50;99.90;;;;;;4993883;28;20065;-60
2023/04/28 11:59:32;;;;;;;20.60;16.02;;;11.60;99.90;;;;;;5007262;28;20042;-61
2023/04/28 12:02:01;;;;;;;19.75;15.10;;;11.60;99.90;;;;;;5010323;28;20042;-61
2023/04/28 12:04:36;;;;;;;21.70;16.42;;;11.60;99.90;;;;;;5003486;28;20041;-64
2023/04/28 12:07:09;;;;;;;21.73;15.55;;;11.70;99.90;;;;;;5007228;28;20046;-60
2023/04/28 12:09:36;;;;;;;20.70;16.43;;;11.80;99.90;;;;;;5007316;28;20275;-60
2023/04/28 12:12:10;;;;;;;21.20;16.80;;;11.80;99.90;;;;;;5006569;28;20041;-60
2023/04/28 12:14:55;;;;;;;;;;;11.90;99.90;;;;;;5011104;28;20037;-63
2023/04/28 12:17:25;;;;;;;;;;;12.00;99.90;;;;;;5004140;28;20016;-60
2023/04/28 12:19:52;;;;;;;21.05;16.65;;;12.30;99.90;;;;;;4988150;28;19917;-61
2023/04/28 12:22:18;;;;;;;22.15;16.20;;;12.30;99.90;;;;;;5001191;28;20528;-61
2023/04/28 12:25:06;;;;;;;22.83;16.88;;;12.30;99.90;;;;;;4989190;28;20041;-64
2023/04/28 12:27:33;;;;;;;21.38;15.70;;;12.40;99.90;;;;;;4992969;28;20108;-60
2023/04/28 12:29:59;;;;;;;17.70;15.27;;;12.50;99.90;;;;;;5005262;28;20048;-60
2023/04/28 12:32:43;;;;;;;22.77;16.08;;;12.60;99.90;;;;;;5004750;28;20210;-60
2023/04/28 12:35:10;;;;;;;18.08;14.05;;;12.60;99.90;;;;;;4999918;28;20041;-59
2023/04/28 12:37:38;;;;;;;20.80;14.55;;;12.40;99.90;;;;;;4991158;28;20055;-59
2023/04/28 12:40:05;;;;;;;16.95;14.45;;;12.40;99.90;;;;;;4986101;28;20069;-60
2023/04/28 12:42:31;;;;;;;20.58;14.65;;;12.40;99.90;;;;;;4990433;28;20520;-59